Map

Track Data

SID SEASON NUMBER BASIN SUBBASIN NAME ISO_TIME NATURE LAT LON WMO_WIND WMO_PRES WMO_AGENCY TRACK_TYPE DIST2LAND LANDFALL IFLAG USA_AGENCY USA_ATCF_ID USA_LAT USA_LON USA_RECORD USA_STATUS USA_WIND USA_PRES USA_SSHS USA_R34_NE USA_R34_SE USA_R34_SW USA_R34_NW USA_R50_NE USA_R50_SE USA_R50_SW USA_R50_NW USA_R64_NE USA_R64_SE USA_R64_SW USA_R64_NW USA_POCI USA_ROCI USA_RMW USA_EYE TOKYO_LAT TOKYO_LON TOKYO_GRADE TOKYO_WIND TOKYO_PRES TOKYO_R50_DIR TOKYO_R50_LONG TOKYO_R50_SHORT TOKYO_R30_DIR TOKYO_R30_LONG TOKYO_R30_SHORT TOKYO_LAND CMA_LAT CMA_LON CMA_CAT CMA_WIND CMA_PRES HKO_LAT HKO_LON HKO_CAT HKO_WIND HKO_PRES NEWDELHI_LAT NEWDELHI_LON NEWDELHI_GRADE NEWDELHI_WIND NEWDELHI_PRES NEWDELHI_CI NEWDELHI_DP NEWDELHI_POCI REUNION_LAT REUNION_LON REUNION_TYPE REUNION_WIND REUNION_PRES REUNION_TNUM REUNION_CI REUNION_RMW REUNION_R34_NE REUNION_R34_SE REUNION_R34_SW REUNION_R34_NW REUNION_R50_NE REUNION_R50_SE REUNION_R50_SW REUNION_R50_NW REUNION_R64_NE REUNION_R64_SE REUNION_R64_SW REUNION_R64_NW BOM_LAT BOM_LON BOM_TYPE BOM_WIND BOM_PRES BOM_TNUM BOM_CI BOM_RMW BOM_R34_NE BOM_R34_SE BOM_R34_SW BOM_R34_NW BOM_R50_NE BOM_R50_SE BOM_R50_SW BOM_R50_NW BOM_R64_NE BOM_R64_SE BOM_R64_SW BOM_R64_NW BOM_ROCI BOM_POCI BOM_EYE BOM_POS_METHOD BOM_PRES_METHOD NADI_LAT NADI_LON NADI_CAT NADI_WIND NADI_PRES WELLINGTON_LAT WELLINGTON_LON WELLINGTON_WIND WELLINGTON_PRES DS824_LAT DS824_LON DS824_STAGE DS824_WIND DS824_PRES TD9636_LAT TD9636_LON TD9636_STAGE TD9636_WIND TD9636_PRES TD9635_LAT TD9635_LON TD9635_WIND TD9635_PRES TD9635_ROCI NEUMANN_LAT NEUMANN_LON NEUMANN_CLASS NEUMANN_WIND NEUMANN_PRES MLC_LAT MLC_LON MLC_CLASS MLC_WIND MLC_PRES USA_GUST BOM_GUST BOM_GUST_PER REUNION_GUST REUNION_GUST_PER USA_SEAHGT USA_SEARAD_NE USA_SEARAD_SE USA_SEARAD_SW USA_SEARAD_NW STORM_SPEED STORM_DIR
1992277N16140 1992 102 WP MM YVETTE 1992-10-03 06:00:00 NR 15.7000 139.700 main 1581 1574 O_____________ jtwc_wp WP231992 15.7000 139.700 15 -1 4 326
1992277N16140 1992 102 WP MM YVETTE 1992-10-03 09:00:00 NR 15.8475 139.603 main 1574 1566 P_____________ WP231992 15.8475 139.603 15 -1 4 327
1992277N16140 1992 102 WP MM YVETTE 1992-10-03 12:00:00 NR 16.0000 139.500 main 1568 1561 O_____________ jtwc_wp WP231992 16.0000 139.500 15 -1 4 327
1992277N16140 1992 102 WP MM YVETTE 1992-10-03 15:00:00 NR 16.1575 139.393 main 1564 1553 P_____________ WP231992 16.1575 139.393 15 -1 4 327
1992277N16140 1992 102 WP MM YVETTE 1992-10-03 18:00:00 NR 16.3000 139.300 main 1556 1549 O_____________ jtwc_wp WP231992 16.3000 139.300 15 -1 3 328
1992277N16140 1992 102 WP MM YVETTE 1992-10-03 21:00:00 NR 16.4075 139.235 main 1549 1549 P_____________ WP231992 16.4075 139.235 15 -1 2 333
1992277N16140 1992 102 WP MM YVETTE 1992-10-04 00:00:00 NR 16.5000 139.200 main 1552 1552 O_____________ jtwc_wp WP231992 16.5000 139.200 15 -1 2 347
1992277N16140 1992 102 WP MM YVETTE 1992-10-04 03:00:00 NR 16.6000 139.200 main 1555 1555 P_____________ WP231992 16.6000 139.200 15 -1 2 8
1992277N16140 1992 102 WP MM YVETTE 1992-10-04 06:00:00 NR 16.7000 139.200 main 1558 1558 O_____________ jtwc_wp WP231992 16.7000 139.200 15 -1 2 347
1992277N16140 1992 102 WP MM YVETTE 1992-10-04 09:00:00 NR 16.8150 139.165 main 1562 1552 P_____________ WP231992 16.8150 139.165 15 -1 2 333
1992277N16140 1992 102 WP MM YVETTE 1992-10-04 12:00:00 NR 16.9000 139.100 main 1555 1545 O_____________ jtwc_wp WP231992 16.9000 139.100 15 -1 2 302
1992277N16140 1992 102 WP MM YVETTE 1992-10-04 15:00:00 NR 16.9075 139.007 main 1545 1535 P_____________ WP231992 16.9075 139.007 15 -1 2 270
1992277N16140 1992 102 WP MM YVETTE 1992-10-04 18:00:00 NR 16.9000 138.900 main 1535 1525 O_____________ jtwc_wp WP231992 16.9000 138.900 15 -1 2 285
1992277N16140 1992 102 WP MM YVETTE 1992-10-04 21:00:00 NR 16.9575 138.808 main 1528 1518 P_____________ WP231992 16.9575 138.808 15 -1 2 298
1992277N16140 1992 102 WP MM YVETTE 1992-10-05 00:00:00 NR 17.0000 138.700 main 1518 1508 O_____________ jtwc_wp WP231992 17.0000 138.700 15 -1 2 270
1992277N16140 1992 102 WP MM YVETTE 1992-10-05 03:00:00 NR 16.9575 138.557 main 1508 1484 P_____________ WP231992 16.9575 138.557 15 -1 3 251
1992277N16140 1992 102 WP MM YVETTE 1992-10-05 06:00:00 NR 16.9000 138.400 main 1484 1474 O_____________ jtwc_wp WP231992 16.9000 138.400 15 -1 3 259
1992277N16140 1992 102 WP MM YVETTE 1992-10-05 09:00:00 NR 16.9000 138.250 main 1474 1454 P_____________ WP231992 16.9000 138.250 15 -1 3 270
1992277N16140 1992 102 WP MM YVETTE 1992-10-05 12:00:00 NR 16.9000 138.100 main 1454 1444 O_____________ jtwc_wp WP231992 16.9000 138.100 15 -1 3 260
1992277N16140 1992 102 WP MM YVETTE 1992-10-05 15:00:00 NR 16.8500 137.957 main 1440 1420 P_____________ WP231992 16.8500 137.957 15 -1 3 251
1992277N16140 1992 102 WP MM YVETTE 1992-10-05 18:00:00 NR 16.8000 137.800 main 1420 1400 O_____________ jtwc_wp WP231992 16.8000 137.800 15 -1 3 262
1992277N16140 1992 102 WP MM YVETTE 1992-10-05 21:00:00 NR 16.8074 137.623 main 1400 1380 P_____________ WP231992 16.8074 137.623 15 -1 4 270
1992277N16140 1992 102 WP MM YVETTE 1992-10-06 00:00:00 NR 16.8000 137.400 main 1380 1346 O_____________ jtwc_wp WP231992 16.8000 137.400 15 -1 5 259
1992277N16140 1992 102 WP MM YVETTE 1992-10-06 03:00:00 NR 16.7150 137.122 main 1346 1313 P_____________ WP231992 16.7150 137.122 15 -1 6 251
1992277N16140 1992 102 WP MM YVETTE 1992-10-06 06:00:00 NR 16.6000 136.800 main 1313 1279 O_____________ jtwc_wp WP231992 16.6000 136.800 15 -1 7 250
1992277N16140 1992 102 WP MM YVETTE 1992-10-06 09:00:00 NR 16.4924 136.473 main 1279 1235 P_____________ WP231992 16.4924 136.473 15 -1 7 253
1992277N16140 1992 102 WP MM YVETTE 1992-10-06 12:00:00 NR 16.4000 136.100 main 1235 1195 O_____________ jtwc_wp WP231992 16.4000 136.100 15 -1 8 260
1992277N16140 1992 102 WP MM YVETTE 1992-10-06 15:00:00 NR 16.3500 135.665 main 1191 1141 P_____________ WP231992 16.3500 135.665 17 -1 9 263
1992277N16140 1992 102 WP MM YVETTE 1992-10-06 18:00:00 NR 16.3000 135.200 main 1141 1098 O_____________ jtwc_wp WP231992 16.3000 135.200 20 -1 9 261
1992277N16140 1992 102 WP MM YVETTE 1992-10-06 21:00:00 NR 16.2074 134.742 main 1088 1025 P_____________ WP231992 16.2074 134.742 20 -1 11 258
1992277N16140 1992 102 WP MM YVETTE 1992-10-07 00:00:00 TS 16.0667 134.033 1006 tokyo main 1015 971 OOO___________ jtwc_wp WP231992 16.1000 134.300 20 -1 16.0000 133.500 2 1006 0 0 0 16.0000 133.500 1 29 1006 11 260
1992277N16140 1992 102 WP MM YVETTE 1992-10-07 03:00:00 TS 16.0000 133.571 main 971 933 PPP___________ WP231992 15.9999 133.893 20 -1 16.0001 133.250 2 1006 0 0 16.0001 133.250 1 29 1005 8 262
1992277N16140 1992 102 WP MM YVETTE 1992-10-07 06:00:00 TS 15.9600 133.200 1006 tokyo main 933 899 OOO___________ jtwc_wp WP231992 15.9000 133.500 20 -1 16.0000 133.000 2 1006 0 0 0 16.0000 133.000 1 29 1004 7 264
1992277N16140 1992 102 WP MM YVETTE 1992-10-07 09:00:00 TS 15.9308 132.867 main 899 870 PPP___________ WP231992 15.7924 133.100 22 -1 16.0000 132.750 2 1006 0 0 16.0000 132.750 1 29 1004 6 264
1992277N16140 1992 102 WP MM YVETTE 1992-10-07 12:00:00 TS 15.9000 132.567 1006 tokyo main 870 842 OOO___________ jtwc_wp WP231992 15.7000 132.700 25 -1 16.0000 132.500 2 1006 0 0 0 16.0000 132.500 1 29 1004 6 265
1992277N16140 1992 102 WP MM YVETTE 1992-10-07 15:00:00 TS 15.8833 132.272 main 842 814 PPP___________ WP231992 15.6499 132.300 25 -1 15.9999 132.258 2 1005 0 0 15.9999 132.258 1 29 1004 6 267
1992277N16140 1992 102 WP MM YVETTE 1992-10-07 18:00:00 TS 15.8667 131.967 1004 tokyo main 814 781 OOO___________ jtwc_wp WP231992 15.6000 131.900 25 -1 16.0000 132.000 2 1004 0 0 0 16.0000 132.000 1 29 1004 6 266
1992277N16140 1992 102 WP MM YVETTE 1992-10-07 21:00:00 TS 15.8383 131.643 main 771 744 PPP___________ WP231992 15.4999 131.500 27 -1 16.0075 131.715 2 1004 0 0 16.0075 131.715 1 29 1004 7 263
1992277N16140 1992 102 WP MM YVETTE 1992-10-08 00:00:00 TS 15.7769 131.238 1004 tokyo main 735 702 OOOO__________ jtwc_wp WP231992 15.4000 131.100 30 -1 16.0000 131.400 2 1004 0 0 0 16.0000 131.400 1 29 1004 15.5000 130.500 TD 25 1000 8 261
1992277N16140 1992 102 WP MM YVETTE 1992-10-08 03:00:00 TS 15.7175 130.831 main 693 658 PPPP__________ WP231992 15.3424 130.700 32 -1 15.9574 131.065 2 1003 0 0 15.9574 131.065 1 29 1003 15.5076 130.160 TD 30 995 8 262
1992277N16140 1992 102 WP MM YVETTE 1992-10-08 06:00:00 TS 15.6600 130.413 1002 tokyo main 658 617 OOOO__________ jtwc_wp WP231992 15.3000 130.300 35 0 15.9000 130.700 2 1002 0 0 0 15.9000 130.700 1 29 1002 15.5000 129.800 TS 35 990 8 262
1992277N16140 1992 102 WP MM YVETTE 1992-10-08 09:00:00 TS 15.6074 129.984 main 617 583 PPPP__________ WP231992 15.2499 129.900 37 0 15.8574 130.315 2 1001 0 0 15.8574 130.315 1 33 1000 15.4650 129.408 TS 37 987 8 262
1992277N16140 1992 102 WP MM YVETTE 1992-10-08 12:00:00 TS 15.5500 129.575 35 1000 tokyo main 583 544 OOOO__________ jtwc_wp WP231992 15.2000 129.500 40 0 15.8000 129.900 3 35 1000 0 9 120 120 0 15.8000 129.900 2 38 998 15.4000 129.000 TS 40 985 8 260
1992277N16140 1992 102 WP MM YVETTE 1992-10-08 15:00:00 TS 15.4699 129.158 main 544 492 PPPP__________ WP231992 15.1499 129.100 42 0 15.7149 129.465 3 37 999 0 9 120 120 15.7149 129.465 2 38 996 15.2999 128.600 TS 42 982 8 258
1992277N16140 1992 102 WP MM YVETTE 1992-10-08 18:00:00 TS 15.3750 128.725 40 998 tokyo main 492 448 OOOO__________ jtwc_wp WP231992 15.1000 128.700 45 0 15.6000 129.000 3 40 998 0 9 120 120 0 15.6000 129.000 2 38 995 15.2000 128.200 TS 45 980 9 256
1992277N16140 1992 102 WP MM YVETTE 1992-10-08 21:00:00 TS 15.2656 128.279 main 448 403 PPPP__________ WP231992 15.0424 128.300 47 0 15.4424 128.507 3 42 995 0 9 130 130 15.4424 128.515 2 43 992 15.1350 127.793 TS 47 977 9 257
1992277N16140 1992 102 WP MM YVETTE 1992-10-09 00:00:00 TS 15.1750 127.825 45 992 tokyo main 393 349 OOOO__________ jtwc_wp WP231992 15.0000 127.900 50 0 15.3000 128.000 3 45 992 0 9 140 140 0 15.3000 128.000 3 48 990 15.1000 127.400 STS 50 975 9 262
1992277N16140 1992 102 WP MM YVETTE 1992-10-09 03:00:00 TS 15.1350 127.364 main 349 300 PPPP__________ WP231992 14.9924 127.500 52 0 15.2274 127.493 3 47 988 0 9 150 150 15.2276 127.435 3 48 987 15.0925 127.028 STS 52 972 9 267
1992277N16140 1992 102 WP MM YVETTE 1992-10-09 06:00:00 TS 15.1250 126.925 50 985 tokyo main 300 263 OOOO__________ jtwc_wp WP231992 15.0000 127.100 55 0 15.2000 127.000 4 50 985 0 9 160 160 0 15.2000 126.900 3 48 985 15.1000 126.700 STS 55 970 8 269
1992277N16140 1992 102 WP MM YVETTE 1992-10-09 09:00:00 TS 15.1212 126.513 main 263 235 PPPP__________ WP231992 15.0001 126.663 57 0 15.1925 126.513 4 52 982 0 9 160 160 15.1924 126.455 3 53 982 15.1000 126.420 STS 55 970 7 270
1992277N16140 1992 102 WP MM YVETTE 1992-10-09 12:00:00 TS 15.1250 126.175 55 980 tokyo main 235 210 OOOO__________ jtwc_wp WP231992 15.0000 126.300 60 0 15.2000 126.100 4 55 980 9 40 40 9 160 160 0 15.2000 126.100 3 58 980 15.1000 126.200 STS 55 970 6 270
1992277N16140 1992 102 WP MM YVETTE 1992-10-09 15:00:00 TS 15.1174 125.932 main 210 201 PPPP__________ WP231992 14.9924 126.105 65 1 15.1924 125.797 4 55 980 9 40 40 9 165 165 15.1849 125.797 3 58 977 15.1000 126.028 STS 57 967 4 270
1992277N16140 1992 102 WP MM YVETTE 1992-10-09 18:00:00 TS 15.1250 125.775 55 980 tokyo main 201 194 OOOO__________ jtwc_wp WP231992 15.0000 126.000 70 1 15.2000 125.600 4 55 980 9 40 40 9 170 170 0 15.2000 125.600 3 58 975 15.1000 125.900 STS 60 965 3 279
1992277N16140 1992 102 WP MM YVETTE 1992-10-09 21:00:00 TS 15.1618 125.648 main 193 193 PPPP__________ WP231992 15.0350 125.878 75 1 15.2350 125.440 4 57 977 9 45 45 9 175 175 15.2925 125.505 3 63 970 15.0850 125.770 STS 60 965 2 301
1992277N16140 1992 102 WP MM YVETTE 1992-10-10 00:00:00 TS 15.2250 125.600 60 975 tokyo main 193 193 OOOO__________ jtwc_wp WP231992 15.1000 125.800 80 1 15.3000 125.400 4 60 975 9 50 50 9 180 180 0 15.4000 125.500 4 68 965 15.1000 125.700 STS 60 965 1 352
1992277N16140 1992 102 WP MM YVETTE 1992-10-10 03:00:00 TS 15.3031 125.640 main 201 201 PPPP__________ WP231992 15.1925 125.785 85 2 15.3925 125.520 4 65 970 9 60 60 9 195 195 15.4500 125.528 4 72 960 15.1775 125.727 STS 62 962 2 35
1992277N16140 1992 102 WP MM YVETTE 1992-10-10 06:00:00 TS 15.4000 125.725 70 965 tokyo main 217 217 OOOO__________ jtwc_wp WP231992 15.3000 125.800 90 2 15.5000 125.700 5 70 965 9 70 70 9 210 210 0 15.5000 125.600 4 77 955 15.3000 125.800 T 65 960 3 37
1992277N16140 1992 102 WP MM YVETTE 1992-10-10 09:00:00 TS 15.5125 125.802 main 232 232 PPPP__________ WP231992 15.4000 125.800 95 2 15.6000 125.830 5 75 957 9 75 75 9 215 215 15.6075 125.707 4 77 952 15.4425 125.872 T 70 955 3 27
1992277N16140 1992 102 WP MM YVETTE 1992-10-10 12:00:00 TS 15.6250 125.850 80 950 tokyo main 248 241 OOOO__________ jtwc_wp WP231992 15.5000 125.800 100 3 15.7000 125.900 5 80 950 9 80 80 9 220 220 0 15.7000 125.800 4 77 950 15.6000 125.900 T 75 950 2 0
1992277N16140 1992 102 WP MM YVETTE 1992-10-10 15:00:00 TS 15.7369 125.816 main 249 249 PPPP__________ WP231992 15.6075 125.785 107 3 15.8300 125.865 5 82 945 9 85 85 9 225 225 15.7150 125.815 4 82 945 15.7950 125.800 T 80 945 2 337
1992277N16140 1992 102 WP MM YVETTE 1992-10-10 18:00:00 TS 15.8000 125.775 85 940 tokyo main 258 258 OOOO__________ jtwc_wp WP231992 15.7000 125.800 115 4 15.9000 125.800 5 85 940 9 90 90 9 230 230 0 15.7000 125.800 5 87 940 15.9000 125.700 ST 85 940 0 295
1992277N16140 1992 102 WP MM YVETTE 1992-10-10 21:00:00 TS 15.7537 125.786 main 258 249 PPPP__________ WP231992 15.7575 125.885 120 4 15.8075 125.770 5 87 935 9 95 95 9 235 235 15.6850 125.778 5 92 935 15.7650 125.713 ST 90 937 1 147
1992277N16140 1992 102 WP MM YVETTE 1992-10-11 00:00:00 TS 15.7000 125.850 90 930 tokyo main 256 256 OOOO__________ jtwc_wp WP231992 15.8000 126.000 125 4 15.7000 125.800 5 90 930 9 100 100 9 240 240 0 15.7000 125.800 5 97 930 15.6000 125.800 ST 95 935 2 92
1992277N16140 1992 102 WP MM YVETTE 1992-10-11 03:00:00 TS 15.7475 125.976 main 263 263 PPPP__________ WP231992 15.8500 126.100 125 4 15.7275 125.935 5 90 930 9 100 100 9 240 240 15.7925 125.935 5 97 930 15.6200 125.935 ST 87 940 3 65
1992277N16140 1992 102 WP MM YVETTE 1992-10-11 06:00:00 TS 15.8250 126.125 90 930 tokyo main 279 279 OOOO__________ jtwc_wp WP231992 15.9000 126.200 125 4 15.8000 126.100 5 90 930 9 100 100 9 240 240 0 15.9000 126.100 5 97 930 15.7000 126.100 T 80 945 3 64
1992277N16140 1992 102 WP MM YVETTE 1992-10-11 09:00:00 TS 15.8675 126.236 main 294 294 PPPP__________ WP231992 15.9425 126.285 122 4 15.8350 126.208 5 90 930 9 100 100 9 240 240 15.9500 126.208 5 97 930 15.7425 126.243 T 75 950 2 65
1992277N16140 1992 102 WP MM YVETTE 1992-10-11 12:00:00 TS 15.9250 126.350 90 930 tokyo main 310 310 OOOO__________ jtwc_wp WP231992 16.0000 126.400 120 4 15.9000 126.300 5 90 930 9 100 100 9 240 240 0 16.0000 126.300 5 97 930 15.8000 126.400 T 70 955 3 58
1992277N16140 1992 102 WP MM YVETTE 1992-10-11 15:00:00 TS 16.0206 126.493 main 325 325 PPPP__________ WP231992 16.0925 126.585 117 4 16.0275 126.393 5 90 932 9 100 100 9 240 240 16.0775 126.393 5 97 932 15.8850 126.600 T 70 955 4 52
1992277N16140 1992 102 WP MM YVETTE 1992-10-11 18:00:00 TS 16.1500 126.650 90 935 tokyo main 356 356 OOOO__________ jtwc_wp WP231992 16.2000 126.800 115 4 16.2000 126.500 5 90 935 9 100 100 9 240 240 0 16.2000 126.500 5 97 935 16.0000 126.800 T 70 955 4 47
1992277N16140 1992 102 WP MM YVETTE 1992-10-11 21:00:00 TS 16.3050 126.811 main 371 371 PPPP__________ WP231992 16.2925 127.008 112 3 16.4000 126.635 5 87 937 9 95 95 9 235 235 16.3925 126.635 5 92 937 16.1350 126.965 T 70 955 5 44
1992277N16140 1992 102 WP MM YVETTE 1992-10-12 00:00:00 TS 16.4750 126.975 85 940 tokyo main 402 402 OOOO__________ jtwc_wp WP231992 16.4000 127.200 110 3 16.6000 126.800 5 85 940 9 90 90 9 230 230 0 16.6000 126.800 5 87 940 16.3000 127.100 T 70 955 5 43
1992277N16140 1992 102 WP MM YVETTE 1992-10-12 03:00:00 TS 16.6375 127.136 main 418 418 PPPP__________ WP231992 16.5425 127.358 110 3 16.7575 126.993 5 85 940 9 90 90 9 230 230 16.7575 127.000 5 87 940 16.4925 127.193 T 70 955 5 44
1992277N16140 1992 102 WP MM YVETTE 1992-10-12 06:00:00 TS 16.8000 127.300 85 940 tokyo main 449 449 OOOO__________ jtwc_wp WP231992 16.7000 127.500 110 3 16.9000 127.200 5 85 940 9 90 90 9 230 230 0 16.9000 127.200 5 87 940 16.7000 127.300 T 70 955 5 44
1992277N16140 1992 102 WP MM YVETTE 1992-10-12 09:00:00 TS 16.9643 127.464 main 479 479 PPPP__________ WP231992 16.8500 127.643 110 3 17.0500 127.393 5 85 940 9 90 90 9 230 230 17.0499 127.335 5 87 940 16.9075 127.485 T 70 955 5 46
1992277N16140 1992 102 WP MM YVETTE 1992-10-12 12:00:00 TS 17.1250 127.650 85 940 tokyo main 503 503 OOOO__________ jtwc_wp WP231992 17.0000 127.800 110 3 17.2000 127.600 5 85 940 9 90 90 9 230 230 0 17.2000 127.500 5 87 940 17.1000 127.700 T 70 955 5 52
1992277N16140 1992 102 WP MM YVETTE 1992-10-12 15:00:00 TS 17.2750 127.884 main 533 533 PPPP__________ WP231992 17.1425 127.993 112 3 17.3500 127.850 5 85 940 9 90 90 9 230 230 17.3501 127.792 5 87 940 17.2575 127.900 T 72 952 5 56
1992277N16140 1992 102 WP MM YVETTE 1992-10-12 18:00:00 TS 17.4250 128.125 85 940 tokyo main 557 557 OOOO__________ jtwc_wp WP231992 17.3000 128.200 115 4 17.5000 128.100 5 85 940 9 90 90 9 230 230 0 17.5000 128.100 5 87 940 17.4000 128.100 T 75 950 5 54
1992277N16140 1992 102 WP MM YVETTE 1992-10-12 21:00:00 TS 17.5800 128.329 main 587 587 PPPP__________ WP231992 17.4850 128.400 120 4 17.6500 128.308 5 87 937 9 95 95 9 235 235 17.6424 128.315 5 87 940 17.5425 128.293 T 77 947 5 50
1992277N16140 1992 102 WP MM YVETTE 1992-10-13 00:00:00 TS 17.7500 128.525 90 935 tokyo main 618 611 OOOO__________ jtwc_wp WP231992 17.7000 128.600 125 4 17.8000 128.500 5 90 935 9 100 100 9 240 240 0 17.8000 128.500 5 87 940 17.7000 128.500 T 80 945 5 48
1992277N16140 1992 102 WP MM YVETTE 1992-10-13 03:00:00 TS 17.9350 128.747 main 641 641 PPPP__________ WP231992 17.9425 128.808 130 4 17.9275 128.708 5 90 932 9 100 100 9 250 250 17.9850 128.708 5 87 937 17.8851 128.765 T 85 942 6 45
1992277N16140 1992 102 WP MM YVETTE 1992-10-13 06:00:00 TS 18.1500 128.950 90 930 tokyo main 687 687 OOOO__________ jtwc_wp WP231992 18.2000 129.000 135 4 18.1000 128.900 5 90 930 9 100 100 9 260 260 0 18.2000 128.900 5 87 935 18.1000 129.000 ST 90 940 6 36
1992277N16140 1992 102 WP MM YVETTE 1992-10-13 09:00:00 TS 18.4087 129.108 main 710 710 PPPP__________ WP231992 18.4500 129.173 142 5 18.3925 129.065 5 92 927 9 105 105 9 260 260 18.4500 129.065 5 92 932 18.3424 129.130 ST 90 940 6 27
1992277N16140 1992 102 WP MM YVETTE 1992-10-13 12:00:00 TS 18.6750 129.225 95 925 tokyo main 728 728 OOOO__________ jtwc_wp WP231992 18.7000 129.300 150 5 18.7000 129.200 5 95 925 9 110 110 9 260 260 0 18.7000 129.200 5 97 930 18.6000 129.200 ST 90 940 5 22
1992277N16140 1992 102 WP MM YVETTE 1992-10-13 15:00:00 TS 18.8981 129.321 main 739 739 PPPP__________ WP231992 18.9500 129.373 152 5 18.9000 129.330 5 97 922 9 115 115 9 265 265 18.8925 129.323 5 97 930 18.8500 129.258 ST 90 940 5 17
1992277N16140 1992 102 WP MM YVETTE 1992-10-13 18:00:00 TS 19.1250 129.375 100 920 tokyo main 751 751 OOOO__________ jtwc_wp WP231992 19.2000 129.400 155 5 19.1000 129.400 5 100 920 9 120 120 9 270 270 0 19.1000 129.400 5 97 930 19.1000 129.300 ST 90 940 5 6
1992277N16140 1992 102 WP MM YVETTE 1992-10-13 21:00:00 TS 19.3944 129.375 main 755 755 PPPP__________ WP231992 19.4500 129.393 155 5 19.3925 129.350 5 100 917 9 125 125 9 285 285 19.3925 129.408 5 97 927 19.3425 129.350 ST 90 940 6 0
1992277N16140 1992 102 WP MM YVETTE 1992-10-14 00:00:00 TS 19.6750 129.375 100 915 tokyo main 760 760 OOOO__________ jtwc_wp WP231992 19.7000 129.400 155 5 19.7000 129.300 5 100 915 9 130 130 9 300 300 0 19.7000 129.400 5 97 925 19.6000 129.400 ST 90 940 5 4
1992277N16140 1992 102 WP MM YVETTE 1992-10-14 03:00:00 TS 19.9300 129.416 main 764 764 PPPP__________ WP231992 19.9425 129.470 152 5 19.9425 129.355 5 100 915 9 130 130 9 310 310 19.9424 129.413 5 101 922 19.8925 129.428 ST 90 940 5 15
1992277N16140 1992 102 WP MM YVETTE 1992-10-14 06:00:00 TS 20.2000 129.525 100 915 tokyo main 781 781 OOOO__________ jtwc_wp WP231992 20.2000 129.600 150 5 20.2000 129.500 5 100 915 9 130 130 9 320 320 0 20.2000 129.500 6 106 920 20.2000 129.500 ST 90 940 7 26
1992277N16140 1992 102 WP MM YVETTE 1992-10-14 09:00:00 TS 20.5175 129.716 main 810 810 PPPP__________ WP231992 20.4850 129.778 150 5 20.5425 129.720 5 100 915 9 130 130 9 330 330 20.5425 129.712 6 106 920 20.4999 129.655 ST 90 940 8 33
1992277N16140 1992 102 WP MM YVETTE 1992-10-14 12:00:00 TS 20.8500 129.975 100 915 tokyo main 853 849 OOOO__________ jtwc_wp WP231992 20.8000 130.000 150 5 20.9000 130.000 5 100 915 9 130 130 9 340 340 0 20.9000 130.000 6 106 920 20.8000 129.900 ST 90 940 8 38
1992277N16140 1992 102 WP MM YVETTE 1992-10-14 15:00:00 TS 21.1681 130.254 main 893 893 PPPP__________ WP231992 21.1499 130.228 150 5 21.2074 130.278 5 100 917 9 130 130 9 360 360 21.2074 130.285 6 106 920 21.1075 130.227 ST 90 940 8 42
1992277N16140 1992 102 WP MM YVETTE 1992-10-14 18:00:00 TS 21.4750 130.575 100 920 tokyo main 933 933 OOOO__________ jtwc_wp WP231992 21.5000 130.500 150 5 21.5000 130.600 5 100 920 9 130 130 9 380 380 0 21.5000 130.600 6 106 920 21.4000 130.600 ST 90 940 9 46
1992277N16140 1992 102 WP MM YVETTE 1992-10-14 21:00:00 TS 21.7700 130.928 main 967 967 PPPP__________ WP231992 21.8074 130.820 147 5 21.8076 131.000 5 100 920 9 130 130 9 390 390 21.8075 130.943 6 106 920 21.6574 130.950 ST 90 940 9 50
1992277N16140 1992 102 WP MM YVETTE 1992-10-15 00:00:00 TS 22.0500 131.300 100 920 tokyo main 995 975 OOOO__________ jtwc_wp WP231992 22.1000 131.200 145 5 22.1000 131.400 5 100 920 9 130 130 9 400 400 0 22.1000 131.300 6 106 920 21.9000 131.300 ST 90 940 9 51
1992277N16140 1992 102 WP MM YVETTE 1992-10-15 03:00:00 TS 22.3048 131.642 main 975 946 PPPP__________ WP231992 22.3924 131.628 142 5 22.3497 131.693 5 97 922 9 125 125 9 400 400 22.3497 131.620 6 101 925 22.1273 131.628 ST 90 940 9 52
1992277N16140 1992 102 WP MM YVETTE 1992-10-15 06:00:00 TS 22.5750 132.025 95 925 tokyo main 946 921 OOOO__________ jtwc_wp WP231992 22.7000 132.100 140 5 22.6000 132.000 5 95 925 9 120 120 9 400 400 0 22.6000 132.000 5 97 930 22.4000 132.000 ST 90 940 10 54
1992277N16140 1992 102 WP MM YVETTE 1992-10-15 09:00:00 TS 22.8882 132.512 main 921 897 PPPP__________ WP231992 23.0424 132.593 137 5 22.8700 132.428 5 92 927 9 120 120 9 400 340 22.8704 132.550 5 97 930 22.7700 132.478 ST 85 942 11 54
1992277N16140 1992 102 WP MM YVETTE 1992-10-15 12:00:00 TS 23.2500 133.025 90 930 tokyo main 889 868 OOOO__________ jtwc_wp WP231992 23.4000 133.100 135 4 23.2000 132.900 5 90 930 9 120 120 7 400 280 0 23.2000 133.100 5 97 930 23.2000 133.000 T 80 945 12 49
1992277N16140 1992 102 WP MM YVETTE 1992-10-15 15:00:00 TS 23.6541 133.470 main 860 832 PPPP__________ WP231992 23.7348 133.593 132 4 23.6197 133.335 5 90 932 9 115 115 7 400 265 23.6195 133.451 5 92 935 23.6423 133.500 T 77 947 12 44
1992277N16140 1992 102 WP MM YVETTE 1992-10-15 18:00:00 TS 24.1000 133.925 90 935 tokyo main 832 807 OOOO__________ jtwc_wp WP231992 24.1000 134.100 130 4 24.1000 133.800 5 90 935 9 110 110 7 400 250 0 24.1000 133.800 5 87 940 24.1000 134.000 T 75 950 13 44
1992277N16140 1992 102 WP MM YVETTE 1992-10-15 21:00:00 TS 24.5579 134.431 main 801 786 PPPP__________ WP231992 24.5198 134.635 127 4 24.5847 134.313 5 87 937 9 100 100 7 330 255 24.5848 134.298 5 87 940 24.5421 134.478 T 72 952 14 46
1992277N16140 1992 102 WP MM YVETTE 1992-10-16 00:00:00 TS 25.0500 135.000 85 940 tokyo main 781 766 OOOO__________ jtwc_wp WP231992 25.0000 135.200 125 4 25.1000 134.900 5 85 940 9 90 90 9 260 260 0 25.1000 134.900 5 87 940 25.0000 135.000 T 70 955 15 47
1992277N16140 1992 102 WP MM YVETTE 1992-10-16 03:00:00 TS 25.5873 135.631 main 766 753 PPPP__________ WP231992 25.5498 135.785 120 4 25.6574 135.570 5 85 942 9 90 90 9 250 250 25.6572 135.563 5 87 942 25.4847 135.606 T 67 957 16 48
1992277N16140 1992 102 WP MM YVETTE 1992-10-16 06:00:00 TS 26.1250 136.325 85 945 tokyo main 759 754 OOOO__________ jtwc_wp WP231992 26.1000 136.400 115 4 26.2000 136.300 5 85 945 9 90 90 9 240 240 0 26.2000 136.300 5 87 945 26.0000 136.300 T 65 960 17 51
1992277N16140 1992 102 WP MM YVETTE 1992-10-16 09:00:00 TS 26.6152 137.067 main 769 737 PPPP__________ WP231992 26.5573 137.043 110 3 26.6737 137.054 5 82 947 9 90 90 9 240 240 26.6648 137.086 5 82 950 26.5650 137.085 T 60 965 16 55
1992277N16140 1992 102 WP MM YVETTE 1992-10-16 12:00:00 TS 27.0750 137.825 80 950 tokyo main 728 703 OOOO__________ jtwc_wp WP231992 27.0000 137.700 105 3 27.1000 137.800 5 80 950 9 90 90 9 240 240 0 27.1000 137.900 4 77 955 27.1000 137.900 STS 55 970 16 56
1992277N16140 1992 102 WP MM YVETTE 1992-10-16 15:00:00 TS 27.5256 138.573 80 955 tokyo main 710 694 POPP__________ WP231992 27.5074 138.365 97 3 27.5000 138.500 5 80 955 9 90 90 9 240 240 0 27.5650 138.730 4 72 960 27.5300 138.696 STS 50 975 16 57
1992277N16140 1992 102 WP MM YVETTE 1992-10-16 18:00:00 TS 27.9500 139.350 75 960 tokyo main 693 684 OOOO__________ jtwc_wp WP231992 28.0000 139.000 90 2 27.9000 139.500 5 75 960 9 90 90 7 260 220 0 28.0000 139.500 4 68 965 27.9000 139.400 TS 45 980 14 56
1992277N16140 1992 102 WP MM YVETTE 1992-10-16 21:00:00 TS 28.3320 139.934 70 965 tokyo main 690 675 POPP__________ WP231992 28.4220 139.558 82 1 28.3000 140.100 5 70 965 9 80 80 7 260 220 0 28.3568 140.131 4 68 965 28.2494 139.946 TS 40 982 13 53
1992277N16140 1992 102 WP MM YVETTE 1992-10-17 00:00:00 TS 28.7067 140.480 70 965 tokyo main 677 647 OOOO__________ jtwc_wp WP231992 28.8000 140.100 75 1 28.7000 140.700 5 70 965 9 80 80 7 260 220 0 28.7000 140.700 4 68 965 28.6000 140.400 TS 35 985 13 52
1992277N16140 1992 102 WP MM YVETTE 1992-10-17 03:00:00 TS 29.1024 141.058 65 970 tokyo main 650 623 POPP__________ WP231992 29.1722 140.685 70 1 29.1000 141.300 5 65 970 9 60 60 8 240 200 0 29.0921 141.293 4 63 970 28.9880 140.847 TS 32 987 13 53
1992277N16140 1992 102 WP MM YVETTE 1992-10-17 06:00:00 TS 29.4923 141.669 65 970 tokyo main 625 605 OOOO__________ jtwc_wp WP231992 29.5000 141.300 65 1 29.5000 141.900 5 65 970 9 60 60 8 240 200 0 29.5000 141.900 3 58 975 29.4000 141.300 TD 30 990 13 55
1992277N16140 1992 102 WP MM YVETTE 1992-10-17 09:00:00 TS 29.8620 142.309 60 975 tokyo main 601 591 POP___________ WP231992 29.7794 141.920 60 0 29.9000 142.500 4 60 975 9 50 50 9 210 210 0 29.9067 142.506 3 58 977 TD 13 57
1992277N16140 1992 102 WP MM YVETTE 1992-10-17 12:00:00 TS 30.2000 142.933 55 980 tokyo main 594 593 OOO___________ jtwc_wp WP231992 30.0000 142.600 55 0 30.3000 143.000 4 55 980 9 50 50 9 210 210 0 30.3000 143.200 3 58 980 14 63
1992277N16140 1992 102 WP MM YVETTE 1992-10-17 15:00:00 TS 30.5067 143.789 main 610 610 PPP___________ WP231992 30.1718 143.348 50 0 30.6746 143.897 4 50 985 9 9 210 210 30.6736 144.122 3 53 985 17 69
1992277N16140 1992 102 WP MM YVETTE 1992-10-17 18:00:00 TS 30.8091 144.782 45 990 tokyo main 638 636 OOO___________ jtwc_wp WP231992 30.3000 144.200 45 0 31.0000 145.000 3 45 990 0 9 210 210 0 31.0000 145.000 3 48 990 17 70
1992277N16140 1992 102 WP MM YVETTE 1992-10-17 21:00:00 TS 31.0925 145.649 main 664 664 PPP___________ WP231992 30.4069 145.167 40 0 31.2642 146.001 3 994 0 9 31.2636 145.539 3 38 994 16 69
1992277N16140 1992 102 WP MM YVETTE 1992-10-18 00:00:00 MX 31.3750 146.525 998 tokyo main 705 705 OOO___________ jtwc_wp WP231992 30.5000 146.200 35 0 31.5000 147.000 6 998 0 0 0 31.5000 146.000 1 29 998 17 68
1992277N16140 1992 102 WP MM YVETTE 1992-10-18 03:00:00 MX 31.7219 147.485 main 754 754 _PP___________ WP231992 -1 31.7097 147.928 6 1001 0 0 31.7464 146.599 1 26 1001 19 71
1992277N16140 1992 102 WP MM YVETTE 1992-10-18 06:00:00 MX 32.0000 148.660 1004 tokyo main 828 828 _OO___________ -1 32.0000 149.000 6 1004 0 0 0 32.0000 147.300 1 23 1004 27 74
1992277N16140 1992 102 WP MM YVETTE 1992-10-18 09:00:00 ET 32.4655 150.498 main 950 950 _P____________ -1 32.4655 150.498 6 1005 0 0 1 30 70
1992277N16140 1992 102 WP MM YVETTE 1992-10-18 12:00:00 ET 33.0000 152.000 1006 tokyo main 1059 1059 _O____________ -1 33.0000 152.000 6 1006 0 0 0 24 65
1992277N16140 1992 102 WP MM YVETTE 1992-10-18 15:00:00 ET 33.5108 153.125 main 1140 1140 _P____________ -1 33.5108 153.125 6 1007 0 0 19 59
1992277N16140 1992 102 WP MM YVETTE 1992-10-18 18:00:00 ET 34.0000 154.000 1008 tokyo main 1206 _O____________ -1 34.0000 154.000 6 1008 0 0 0 18 56

Digital Typhoon Data and Search

About IBTrACS Database

This database is a web-friendly format of International Best Track Archive for Climate Stewardship (IBTrACS), a global best track data archive curated by NOAA dating back to 1842.

Updated: 2021-11-26